sensor_id;sensor_type;location;lat;lon;timestamp;P1;durP1;ratioP1;P2;durP2;ratioP2
20609;SDS011;10463;52.378;9.688;2023-02-23T00:00:43;2.07;;;1.63;;
20609;SDS011;10463;52.378;9.688;2023-02-23T00:03:28;1.60;;;1.17;;
20609;SDS011;10463;52.378;9.688;2023-02-23T00:06:13;2.40;;;1.60;;
20609;SDS011;10463;52.378;9.688;2023-02-23T00:08:59;2.00;;;1.30;;
20609;SDS011;10463;52.378;9.688;2023-02-23T00:11:44;1.93;;;1.30;;
20609;SDS011;10463;52.378;9.688;2023-02-23T00:14:28;2.43;;;1.50;;
20609;SDS011;10463;52.378;9.688;2023-02-23T00:17:15;2.50;;;1.50;;
20609;SDS011;10463;52.378;9.688;2023-02-23T00:20:01;2.13;;;1.43;;
20609;SDS011;10463;52.378;9.688;2023-02-23T00:22:51;2.00;;;1.40;;
20609;SDS011;10463;52.378;9.688;2023-02-23T00:25:37;2.37;;;1.40;;
20609;SDS011;10463;52.378;9.688;2023-02-23T00:28:22;2.27;;;1.23;;
20609;SDS011;10463;52.378;9.688;2023-02-23T00:31:08;3.10;;;1.30;;
20609;SDS011;10463;52.378;9.688;2023-02-23T00:33:57;2.00;;;1.37;;
20609;SDS011;10463;52.378;9.688;2023-02-23T00:36:44;2.03;;;1.47;;
20609;SDS011;10463;52.378;9.688;2023-02-23T00:39:30;2.07;;;1.40;;
20609;SDS011;10463;52.378;9.688;2023-02-23T00:42:15;1.73;;;1.30;;
20609;SDS011;10463;52.378;9.688;2023-02-23T00:44:59;2.80;;;1.30;;
20609;SDS011;10463;52.378;9.688;2023-02-23T00:47:50;2.00;;;1.70;;
20609;SDS011;10463;52.378;9.688;2023-02-23T00:50:36;2.20;;;1.40;;
20609;SDS011;10463;52.378;9.688;2023-02-23T00:53:22;2.10;;;1.30;;
20609;SDS011;10463;52.378;9.688;2023-02-23T00:56:08;2.27;;;1.60;;
20609;SDS011;10463;52.378;9.688;2023-02-23T00:58:54;1.90;;;1.30;;
20609;SDS011;10463;52.378;9.688;2023-02-23T01:01:43;1.77;;;1.20;;
20609;SDS011;10463;52.378;9.688;2023-02-23T01:04:28;1.83;;;1.20;;
20609;SDS011;10463;52.378;9.688;2023-02-23T01:07:15;2.57;;;1.60;;
20609;SDS011;10463;52.378;9.688;2023-02-23T01:10:00;2.10;;;1.20;;
20609;SDS011;10463;52.378;9.688;2023-02-23T01:12:48;1.87;;;1.30;;
20609;SDS011;10463;52.378;9.688;2023-02-23T01:15:33;2.07;;;1.30;;
20609;SDS011;10463;52.378;9.688;2023-02-23T01:18:19;2.30;;;1.50;;
20609;SDS011;10463;52.378;9.688;2023-02-23T01:21:05;2.13;;;1.50;;
20609;SDS011;10463;52.378;9.688;2023-02-23T01:23:59;3.37;;;2.30;;
20609;SDS011;10463;52.378;9.688;2023-02-23T01:26:45;3.43;;;2.73;;
20609;SDS011;10463;52.378;9.688;2023-02-23T01:29:30;3.70;;;2.60;;
20609;SDS011;10463;52.378;9.688;2023-02-23T01:32:14;3.33;;;2.70;;
20609;SDS011;10463;52.378;9.688;2023-02-23T01:34:59;3.63;;;3.00;;
20609;SDS011;10463;52.378;9.688;2023-02-23T01:37:44;5.20;;;3.37;;
20609;SDS011;10463;52.378;9.688;2023-02-23T01:40:30;3.90;;;3.23;;
20609;SDS011;10463;52.378;9.688;2023-02-23T01:43:20;4.43;;;3.50;;
20609;SDS011;10463;52.378;9.688;2023-02-23T01:46:09;3.93;;;3.23;;
20609;SDS011;10463;52.378;9.688;2023-02-23T01:48:53;4.67;;;3.40;;
20609;SDS011;10463;52.378;9.688;2023-02-23T01:51:41;4.37;;;3.40;;
20609;SDS011;10463;52.378;9.688;2023-02-23T01:54:32;5.00;;;3.77;;
20609;SDS011;10463;52.378;9.688;2023-02-23T01:57:21;4.27;;;3.63;;
20609;SDS011;10463;52.378;9.688;2023-02-23T02:00:11;4.40;;;3.50;;
20609;SDS011;10463;52.378;9.688;2023-02-23T02:02:59;4.80;;;3.83;;
20609;SDS011;10463;52.378;9.688;2023-02-23T02:05:51;4.97;;;3.97;;
20609;SDS011;10463;52.378;9.688;2023-02-23T02:08:43;5.20;;;4.10;;
20609;SDS011;10463;52.378;9.688;2023-02-23T02:11:30;5.47;;;3.70;;
20609;SDS011;10463;52.378;9.688;2023-02-23T02:14:22;4.30;;;3.80;;
20609;SDS011;10463;52.378;9.688;2023-02-23T02:17:18;4.60;;;4.10;;
20609;SDS011;10463;52.378;9.688;2023-02-23T02:23:56;5.20;;;4.03;;
20609;SDS011;10463;52.378;9.688;2023-02-23T02:27:07;4.77;;;4.03;;
20609;SDS011;10463;52.378;9.688;2023-02-23T02:30:25;5.07;;;4.40;;
20609;SDS011;10463;52.378;9.688;2023-02-23T02:37:28;7.77;;;6.60;;
20609;SDS011;10463;52.378;9.688;2023-02-23T02:40:25;8.63;;;7.70;;
20609;SDS011;10463;52.378;9.688;2023-02-23T02:43:19;8.87;;;8.00;;
20609;SDS011;10463;52.378;9.688;2023-02-23T02:46:13;9.13;;;7.27;;
20609;SDS011;10463;52.378;9.688;2023-02-23T02:49:03;8.73;;;7.93;;
20609;SDS011;10463;52.378;9.688;2023-02-23T02:51:53;9.20;;;7.30;;
20609;SDS011;10463;52.378;9.688;2023-02-23T02:54:45;8.43;;;6.97;;
20609;SDS011;10463;52.378;9.688;2023-02-23T02:57:40;6.83;;;6.13;;
20609;SDS011;10463;52.378;9.688;2023-02-23T03:00:28;7.10;;;6.40;;
20609;SDS011;10463;52.378;9.688;2023-02-23T03:03:35;7.20;;;5.53;;
20609;SDS011;10463;52.378;9.688;2023-02-23T03:06:44;6.23;;;5.63;;
20609;SDS011;10463;52.378;9.688;2023-02-23T03:09:53;6.23;;;5.30;;
20609;SDS011;10463;52.378;9.688;2023-02-23T03:13:05;6.30;;;5.70;;
20609;SDS011;10463;52.378;9.688;2023-02-23T03:16:22;6.27;;;5.23;;
20609;SDS011;10463;52.378;9.688;2023-02-23T03:19:30;6.43;;;5.80;;
20609;SDS011;10463;52.378;9.688;2023-02-23T03:22:40;6.90;;;5.73;;
20609;SDS011;10463;52.378;9.688;2023-02-23T03:25:55;6.87;;;5.80;;
20609;SDS011;10463;52.378;9.688;2023-02-23T03:29:06;6.50;;;5.90;;
20609;SDS011;10463;52.378;9.688;2023-02-23T03:32:18;7.63;;;6.87;;
20609;SDS011;10463;52.378;9.688;2023-02-23T03:35:30;6.93;;;5.97;;
20609;SDS011;10463;52.378;9.688;2023-02-23T03:38:42;6.63;;;6.03;;
20609;SDS011;10463;52.378;9.688;2023-02-23T03:41:53;7.50;;;6.67;;
20609;SDS011;10463;52.378;9.688;2023-02-23T03:45:04;6.77;;;6.03;;
20609;SDS011;10463;52.378;9.688;2023-02-23T03:48:12;6.37;;;5.77;;
20609;SDS011;10463;52.378;9.688;2023-02-23T03:51:20;7.57;;;6.83;;
20609;SDS011;10463;52.378;9.688;2023-02-23T03:54:29;7.83;;;6.90;;
20609;SDS011;10463;52.378;9.688;2023-02-23T03:57:37;8.00;;;7.20;;
20609;SDS011;10463;52.378;9.688;2023-02-23T04:00:44;6.40;;;5.80;;
20609;SDS011;10463;52.378;9.688;2023-02-23T04:03:50;7.23;;;6.53;;
20609;SDS011;10463;52.378;9.688;2023-02-23T04:06:57;8.13;;;7.33;;
20609;SDS011;10463;52.378;9.688;2023-02-23T04:10:04;9.63;;;6.90;;
20609;SDS011;10463;52.378;9.688;2023-02-23T04:13:12;7.80;;;7.00;;
20609;SDS011;10463;52.378;9.688;2023-02-23T04:16:03;7.87;;;7.17;;
20609;SDS011;10463;52.378;9.688;2023-02-23T04:18:50;8.00;;;7.20;;
20609;SDS011;10463;52.378;9.688;2023-02-23T04:21:35;7.83;;;7.03;;
20609;SDS011;10463;52.378;9.688;2023-02-23T04:24:19;8.90;;;6.83;;
20609;SDS011;10463;52.378;9.688;2023-02-23T04:27:06;7.10;;;6.50;;
20609;SDS011;10463;52.378;9.688;2023-02-23T04:29:52;8.77;;;7.17;;
20609;SDS011;10463;52.378;9.688;2023-02-23T04:32:36;8.70;;;7.27;;
20609;SDS011;10463;52.378;9.688;2023-02-23T04:35:21;8.53;;;7.37;;
20609;SDS011;10463;52.378;9.688;2023-02-23T04:38:06;9.13;;;6.17;;
20609;SDS011;10463;52.378;9.688;2023-02-23T04:40:51;7.53;;;6.77;;
20609;SDS011;10463;52.378;9.688;2023-02-23T04:43:36;7.93;;;7.13;;
20609;SDS011;10463;52.378;9.688;2023-02-23T04:46:22;6.73;;;6.13;;
20609;SDS011;10463;52.378;9.688;2023-02-23T04:49:06;8.67;;;7.77;;
20609;SDS011;10463;52.378;9.688;2023-02-23T04:51:52;7.27;;;6.57;;
20609;SDS011;10463;52.378;9.688;2023-02-23T04:54:36;7.40;;;6.70;;
20609;SDS011;10463;52.378;9.688;2023-02-23T04:57:22;6.00;;;5.40;;
20609;SDS011;10463;52.378;9.688;2023-02-23T05:00:08;7.97;;;6.60;;
20609;SDS011;10463;52.378;9.688;2023-02-23T05:02:55;7.27;;;6.50;;
20609;SDS011;10463;52.378;9.688;2023-02-23T05:05:40;7.07;;;6.10;;
20609;SDS011;10463;52.378;9.688;2023-02-23T05:08:26;7.40;;;6.70;;
20609;SDS011;10463;52.378;9.688;2023-02-23T05:11:10;7.57;;;6.77;;
20609;SDS011;10463;52.378;9.688;2023-02-23T05:13:55;7.20;;;6.50;;
20609;SDS011;10463;52.378;9.688;2023-02-23T05:16:40;7.93;;;7.17;;
20609;SDS011;10463;52.378;9.688;2023-02-23T05:19:26;7.60;;;6.90;;
20609;SDS011;10463;52.378;9.688;2023-02-23T05:22:11;8.87;;;7.00;;
20609;SDS011;10463;52.378;9.688;2023-02-23T05:24:56;7.13;;;6.43;;
20609;SDS011;10463;52.378;9.688;2023-02-23T05:27:41;8.00;;;7.20;;
20609;SDS011;10463;52.378;9.688;2023-02-23T05:30:25;8.53;;;7.73;;
20609;SDS011;10463;52.378;9.688;2023-02-23T05:36:03;8.90;;;8.07;;
20609;SDS011;10463;52.378;9.688;2023-02-23T05:38:48;8.53;;;7.50;;
20609;SDS011;10463;52.378;9.688;2023-02-23T05:41:33;8.00;;;7.30;;
20609;SDS011;10463;52.378;9.688;2023-02-23T05:44:18;9.10;;;8.20;;
20609;SDS011;10463;52.378;9.688;2023-02-23T05:47:03;8.33;;;7.50;;
20609;SDS011;10463;52.378;9.688;2023-02-23T05:49:48;9.90;;;8.40;;
20609;SDS011;10463;52.378;9.688;2023-02-23T05:52:36;9.00;;;8.03;;
20609;SDS011;10463;52.378;9.688;2023-02-23T05:55:22;12.97;;;8.53;;
20609;SDS011;10463;52.378;9.688;2023-02-23T05:58:09;8.50;;;7.70;;
20609;SDS011;10463;52.378;9.688;2023-02-23T06:00:57;9.07;;;8.10;;
20609;SDS011;10463;52.378;9.688;2023-02-23T06:03:42;8.60;;;7.70;;
20609;SDS011;10463;52.378;9.688;2023-02-23T06:06:27;11.83;;;8.33;;
20609;SDS011;10463;52.378;9.688;2023-02-23T06:09:13;7.53;;;6.80;;
20609;SDS011;10463;52.378;9.688;2023-02-23T06:12:00;8.80;;;7.90;;
20609;SDS011;10463;52.378;9.688;2023-02-23T06:14:45;10.13;;;9.13;;
20609;SDS011;10463;52.378;9.688;2023-02-23T06:17:32;9.43;;;8.17;;
20609;SDS011;10463;52.378;9.688;2023-02-23T06:20:18;10.07;;;9.00;;
20609;SDS011;10463;52.378;9.688;2023-02-23T06:23:03;9.30;;;8.33;;
20609;SDS011;10463;52.378;9.688;2023-02-23T06:25:49;9.80;;;8.80;;
20609;SDS011;10463;52.378;9.688;2023-02-23T06:28:34;11.00;;;9.53;;
20609;SDS011;10463;52.378;9.688;2023-02-23T06:31:19;9.63;;;8.63;;
20609;SDS011;10463;52.378;9.688;2023-02-23T06:34:04;9.17;;;8.27;;
20609;SDS011;10463;52.378;9.688;2023-02-23T06:36:53;10.20;;;8.57;;
20609;SDS011;10463;52.378;9.688;2023-02-23T06:39:38;9.47;;;8.50;;
20609;SDS011;10463;52.378;9.688;2023-02-23T06:42:27;11.93;;;9.00;;
20609;SDS011;10463;52.378;9.688;2023-02-23T06:45:15;10.27;;;8.77;;
20609;SDS011;10463;52.378;9.688;2023-02-23T06:48:02;10.30;;;8.70;;
20609;SDS011;10463;52.378;9.688;2023-02-23T06:50:48;10.50;;;9.50;;
20609;SDS011;10463;52.378;9.688;2023-02-23T06:53:33;11.13;;;9.03;;
20609;SDS011;10463;52.378;9.688;2023-02-23T06:56:17;11.47;;;9.70;;
20609;SDS011;10463;52.378;9.688;2023-02-23T06:59:04;15.00;;;11.33;;
20609;SDS011;10463;52.378;9.688;2023-02-23T07:01:50;18.67;;;12.83;;
20609;SDS011;10463;52.378;9.688;2023-02-23T07:04:35;11.40;;;9.87;;
20609;SDS011;10463;52.378;9.688;2023-02-23T07:07:22;12.67;;;11.37;;
20609;SDS011;10463;52.378;9.688;2023-02-23T07:10:10;13.67;;;11.17;;
20609;SDS011;10463;52.378;9.688;2023-02-23T07:12:55;12.53;;;10.67;;
20609;SDS011;10463;52.378;9.688;2023-02-23T07:15:42;13.70;;;12.10;;
20609;SDS011;10463;52.378;9.688;2023-02-23T07:18:27;18.70;;;14.70;;
20609;SDS011;10463;52.378;9.688;2023-02-23T07:21:11;12.93;;;11.63;;
20609;SDS011;10463;52.378;9.688;2023-02-23T07:23:57;12.07;;;10.87;;
20609;SDS011;10463;52.378;9.688;2023-02-23T07:26:42;10.90;;;9.80;;
20609;SDS011;10463;52.378;9.688;2023-02-23T07:29:30;13.40;;;10.53;;
20609;SDS011;10463;52.378;9.688;2023-02-23T07:32:16;10.77;;;9.67;;
20609;SDS011;10463;52.378;9.688;2023-02-23T07:35:02;9.80;;;8.90;;
20609;SDS011;10463;52.378;9.688;2023-02-23T07:37:47;12.33;;;8.93;;
20609;SDS011;10463;52.378;9.688;2023-02-23T07:40:34;9.90;;;8.50;;
20609;SDS011;10463;52.378;9.688;2023-02-23T07:43:19;12.20;;;9.33;;
20609;SDS011;10463;52.378;9.688;2023-02-23T07:46:06;9.40;;;8.40;;
20609;SDS011;10463;52.378;9.688;2023-02-23T07:48:52;10.43;;;7.00;;
20609;SDS011;10463;52.378;9.688;2023-02-23T07:51:38;10.20;;;8.33;;
20609;SDS011;10463;52.378;9.688;2023-02-23T07:54:23;10.40;;;9.27;;
20609;SDS011;10463;52.378;9.688;2023-02-23T07:57:08;9.37;;;7.83;;
20609;SDS011;10463;52.378;9.688;2023-02-23T07:59:54;9.43;;;8.30;;
20609;SDS011;10463;52.378;9.688;2023-02-23T08:02:39;9.93;;;8.87;;
20609;SDS011;10463;52.378;9.688;2023-02-23T08:05:26;8.53;;;7.77;;
20609;SDS011;10463;52.378;9.688;2023-02-23T08:08:11;19.07;;;8.83;;
20609;SDS011;10463;52.378;9.688;2023-02-23T08:10:59;9.53;;;8.57;;
20609;SDS011;10463;52.378;9.688;2023-02-23T08:13:45;13.73;;;8.73;;
20609;SDS011;10463;52.378;9.688;2023-02-23T08:16:31;9.87;;;8.40;;
20609;SDS011;10463;52.378;9.688;2023-02-23T08:19:17;8.80;;;7.90;;
20609;SDS011;10463;52.378;9.688;2023-02-23T08:22:03;9.57;;;8.50;;
20609;SDS011;10463;52.378;9.688;2023-02-23T08:24:48;8.40;;;7.37;;
20609;SDS011;10463;52.378;9.688;2023-02-23T08:27:33;10.10;;;8.47;;
20609;SDS011;10463;52.378;9.688;2023-02-23T08:30:19;9.70;;;8.20;;
20609;SDS011;10463;52.378;9.688;2023-02-23T08:33:04;9.50;;;8.60;;
20609;SDS011;10463;52.378;9.688;2023-02-23T08:35:50;8.73;;;7.83;;
20609;SDS011;10463;52.378;9.688;2023-02-23T08:38:37;9.23;;;8.33;;
20609;SDS011;10463;52.378;9.688;2023-02-23T08:41:22;8.70;;;7.80;;
20609;SDS011;10463;52.378;9.688;2023-02-23T08:44:08;8.13;;;7.30;;
20609;SDS011;10463;52.378;9.688;2023-02-23T08:46:53;8.50;;;7.70;;
20609;SDS011;10463;52.378;9.688;2023-02-23T08:49:38;8.40;;;7.50;;
20609;SDS011;10463;52.378;9.688;2023-02-23T08:52:23;9.53;;;7.73;;
20609;SDS011;10463;52.378;9.688;2023-02-23T08:55:09;8.57;;;7.67;;
20609;SDS011;10463;52.378;9.688;2023-02-23T08:57:54;8.13;;;7.33;;
20609;SDS011;10463;52.378;9.688;2023-02-23T09:00:39;9.37;;;8.30;;
20609;SDS011;10463;52.378;9.688;2023-02-23T09:03:24;9.90;;;8.20;;
20609;SDS011;10463;52.378;9.688;2023-02-23T09:06:13;8.37;;;7.57;;
20609;SDS011;10463;52.378;9.688;2023-02-23T09:09:00;8.80;;;7.90;;
20609;SDS011;10463;52.378;9.688;2023-02-23T09:11:47;9.20;;;8.20;;
20609;SDS011;10463;52.378;9.688;2023-02-23T09:14:32;9.47;;;7.70;;
20609;SDS011;10463;52.378;9.688;2023-02-23T09:17:17;9.47;;;8.57;;
20609;SDS011;10463;52.378;9.688;2023-02-23T09:20:03;9.53;;;8.57;;
20609;SDS011;10463;52.378;9.688;2023-02-23T09:22:48;9.47;;;8.47;;
20609;SDS011;10463;52.378;9.688;2023-02-23T09:25:33;9.00;;;8.07;;
20609;SDS011;10463;52.378;9.688;2023-02-23T09:28:23;8.53;;;7.70;;
20609;SDS011;10463;52.378;9.688;2023-02-23T09:31:13;8.63;;;7.77;;
20609;SDS011;10463;52.378;9.688;2023-02-23T09:33:59;9.57;;;8.57;;
20609;SDS011;10463;52.378;9.688;2023-02-23T09:36:45;8.87;;;7.97;;
20609;SDS011;10463;52.378;9.688;2023-02-23T09:39:29;9.53;;;8.57;;
20609;SDS011;10463;52.378;9.688;2023-02-23T09:42:19;8.90;;;8.10;;
20609;SDS011;10463;52.378;9.688;2023-02-23T09:45:23;8.27;;;7.40;;
20609;SDS011;10463;52.378;9.688;2023-02-23T09:48:15;9.17;;;8.20;;
20609;SDS011;10463;52.378;9.688;2023-02-23T09:51:05;8.67;;;7.70;;
20609;SDS011;10463;52.378;9.688;2023-02-23T09:53:52;9.70;;;8.70;;
20609;SDS011;10463;52.378;9.688;2023-02-23T09:56:40;8.67;;;7.87;;
20609;SDS011;10463;52.378;9.688;2023-02-23T09:59:28;9.10;;;8.20;;
20609;SDS011;10463;52.378;9.688;2023-02-23T10:02:22;10.53;;;8.90;;
20609;SDS011;10463;52.378;9.688;2023-02-23T10:05:09;10.27;;;9.30;;
20609;SDS011;10463;52.378;9.688;2023-02-23T10:07:59;10.47;;;9.37;;
20609;SDS011;10463;52.378;9.688;2023-02-23T10:10:55;11.57;;;9.77;;
20609;SDS011;10463;52.378;9.688;2023-02-23T10:13:50;13.13;;;10.53;;
20609;SDS011;10463;52.378;9.688;2023-02-23T10:16:44;11.37;;;10.20;;
20609;SDS011;10463;52.378;9.688;2023-02-23T10:19:47;11.53;;;10.43;;
20609;SDS011;10463;52.378;9.688;2023-02-23T10:22:37;11.80;;;10.03;;
20609;SDS011;10463;52.378;9.688;2023-02-23T10:25:25;12.10;;;10.80;;
20609;SDS011;10463;52.378;9.688;2023-02-23T10:28:15;11.17;;;10.07;;
20609;SDS011;10463;52.378;9.688;2023-02-23T10:31:03;11.43;;;10.30;;
20609;SDS011;10463;52.378;9.688;2023-02-23T10:34:11;12.07;;;10.80;;
20609;SDS011;10463;52.378;9.688;2023-02-23T10:37:02;12.87;;;11.47;;
20609;SDS011;10463;52.378;9.688;2023-02-23T10:39:49;13.57;;;11.70;;
20609;SDS011;10463;52.378;9.688;2023-02-23T10:42:35;11.60;;;10.33;;
20609;SDS011;10463;52.378;9.688;2023-02-23T10:45:21;12.73;;;11.47;;
20609;SDS011;10463;52.378;9.688;2023-02-23T10:48:10;11.57;;;10.10;;
20609;SDS011;10463;52.378;9.688;2023-02-23T10:50:59;12.37;;;11.10;;
20609;SDS011;10463;52.378;9.688;2023-02-23T10:53:52;11.30;;;10.20;;
20609;SDS011;10463;52.378;9.688;2023-02-23T10:56:42;11.17;;;9.93;;
20609;SDS011;10463;52.378;9.688;2023-02-23T10:59:27;12.20;;;11.00;;
20609;SDS011;10463;52.378;9.688;2023-02-23T11:02:22;12.13;;;10.83;;
20609;SDS011;10463;52.378;9.688;2023-02-23T11:05:26;12.03;;;10.37;;
20609;SDS011;10463;52.378;9.688;2023-02-23T11:08:19;11.97;;;10.77;;
20609;SDS011;10463;52.378;9.688;2023-02-23T11:11:21;12.67;;;11.37;;
20609;SDS011;10463;52.378;9.688;2023-02-23T11:14:15;12.30;;;9.83;;
20609;SDS011;10463;52.378;9.688;2023-02-23T11:17:00;12.10;;;10.43;;
20609;SDS011;10463;52.378;9.688;2023-02-23T11:19:44;12.23;;;11.03;;
20609;SDS011;10463;52.378;9.688;2023-02-23T11:22:31;11.30;;;9.80;;
20609;SDS011;10463;52.378;9.688;2023-02-23T11:25:22;11.37;;;10.17;;
20609;SDS011;10463;52.378;9.688;2023-02-23T11:28:16;10.30;;;9.30;;
20609;SDS011;10463;52.378;9.688;2023-02-23T11:31:09;11.43;;;9.93;;
20609;SDS011;10463;52.378;9.688;2023-02-23T11:34:02;11.83;;;10.63;;
20609;SDS011;10463;52.378;9.688;2023-02-23T11:36:57;11.07;;;9.63;;
20609;SDS011;10463;52.378;9.688;2023-02-23T11:39:51;10.87;;;9.77;;
20609;SDS011;10463;52.378;9.688;2023-02-23T11:42:37;12.20;;;11.00;;
20609;SDS011;10463;52.378;9.688;2023-02-23T11:45:43;11.97;;;9.43;;
20609;SDS011;10463;52.378;9.688;2023-02-23T11:48:32;10.97;;;9.77;;
20609;SDS011;10463;52.378;9.688;2023-02-23T11:51:25;11.67;;;10.03;;
20609;SDS011;10463;52.378;9.688;2023-02-23T11:54:19;10.83;;;9.70;;
20609;SDS011;10463;52.378;9.688;2023-02-23T11:57:06;10.40;;;9.33;;
20609;SDS011;10463;52.378;9.688;2023-02-23T11:59:51;11.17;;;10.07;;
20609;SDS011;10463;52.378;9.688;2023-02-23T12:02:46;10.40;;;9.30;;
20609;SDS011;10463;52.378;9.688;2023-02-23T12:05:34;10.93;;;9.80;;
20609;SDS011;10463;52.378;9.688;2023-02-23T12:08:03;10.97;;;9.43;;
20609;SDS011;10463;52.378;9.688;2023-02-23T12:10:36;11.97;;;9.00;;
20609;SDS011;10463;52.378;9.688;2023-02-23T12:13:15;11.63;;;9.93;;
20609;SDS011;10463;52.378;9.688;2023-02-23T12:15:52;10.70;;;8.93;;
20609;SDS011;10463;52.378;9.688;2023-02-23T12:18:35;9.53;;;8.53;;
20609;SDS011;10463;52.378;9.688;2023-02-23T12:21:14;10.17;;;8.90;;
20609;SDS011;10463;52.378;9.688;2023-02-23T12:23:50;10.83;;;9.70;;
20609;SDS011;10463;52.378;9.688;2023-02-23T12:26:27;13.03;;;10.67;;
20609;SDS011;10463;52.378;9.688;2023-02-23T12:29:00;10.73;;;9.60;;
20609;SDS011;10463;52.378;9.688;2023-02-23T12:31:36;10.70;;;9.20;;
20609;SDS011;10463;52.378;9.688;2023-02-23T12:34:15;11.00;;;9.23;;
20609;SDS011;10463;52.378;9.688;2023-02-23T12:36:50;10.47;;;8.50;;
20609;SDS011;10463;52.378;9.688;2023-02-23T12:39:25;9.63;;;8.67;;
20609;SDS011;10463;52.378;9.688;2023-02-23T12:42:00;10.30;;;9.20;;
20609;SDS011;10463;52.378;9.688;2023-02-23T12:44:39;10.63;;;9.53;;
20609;SDS011;10463;52.378;9.688;2023-02-23T12:47:17;10.90;;;9.83;;
20609;SDS011;10463;52.378;9.688;2023-02-23T12:49:53;10.17;;;9.10;;
20609;SDS011;10463;52.378;9.688;2023-02-23T12:52:31;10.77;;;9.13;;
20609;SDS011;10463;52.378;9.688;2023-02-23T12:55:01;10.80;;;9.03;;
20609;SDS011;10463;52.378;9.688;2023-02-23T12:57:31;10.70;;;9.60;;
20609;SDS011;10463;52.378;9.688;2023-02-23T13:00:30;10.03;;;8.77;;
20609;SDS011;10463;52.378;9.688;2023-02-23T13:03:16;10.77;;;9.67;;
20609;SDS011;10463;52.378;9.688;2023-02-23T13:06:03;9.43;;;8.53;;
20609;SDS011;10463;52.378;9.688;2023-02-23T13:08:45;9.73;;;8.77;;
20609;SDS011;10463;52.378;9.688;2023-02-23T13:11:28;9.97;;;8.97;;
20609;SDS011;10463;52.378;9.688;2023-02-23T13:14:10;11.17;;;9.60;;
20609;SDS011;10463;52.378;9.688;2023-02-23T13:16:44;10.80;;;9.47;;
20609;SDS011;10463;52.378;9.688;2023-02-23T13:19:17;10.70;;;9.57;;
20609;SDS011;10463;52.378;9.688;2023-02-23T13:21:51;11.07;;;9.93;;
20609;SDS011;10463;52.378;9.688;2023-02-23T13:24:24;11.20;;;9.50;;
20609;SDS011;10463;52.378;9.688;2023-02-23T13:26:59;11.50;;;9.70;;
20609;SDS011;10463;52.378;9.688;2023-02-23T13:29:31;10.97;;;8.63;;
20609;SDS011;10463;52.378;9.688;2023-02-23T13:32:01;11.53;;;9.63;;
20609;SDS011;10463;52.378;9.688;2023-02-23T13:34:32;10.20;;;9.20;;
20609;SDS011;10463;52.378;9.688;2023-02-23T13:37:04;10.40;;;9.30;;
20609;SDS011;10463;52.378;9.688;2023-02-23T13:39:45;10.80;;;9.03;;
20609;SDS011;10463;52.378;9.688;2023-02-23T13:42:26;9.90;;;8.77;;
20609;SDS011;10463;52.378;9.688;2023-02-23T13:48:36;10.57;;;9.47;;
20609;SDS011;10463;52.378;9.688;2023-02-23T13:51:13;10.20;;;9.20;;
20609;SDS011;10463;52.378;9.688;2023-02-23T13:53:47;9.60;;;8.63;;
20609;SDS011;10463;52.378;9.688;2023-02-23T13:56:26;10.30;;;9.07;;
20609;SDS011;10463;52.378;9.688;2023-02-23T13:58:57;11.60;;;9.73;;
20609;SDS011;10463;52.378;9.688;2023-02-23T14:01:27;10.07;;;9.03;;
20609;SDS011;10463;52.378;9.688;2023-02-23T14:03:56;9.80;;;8.67;;
20609;SDS011;10463;52.378;9.688;2023-02-23T14:06:26;10.73;;;9.63;;
20609;SDS011;10463;52.378;9.688;2023-02-23T14:08:57;9.63;;;8.63;;
20609;SDS011;10463;52.378;9.688;2023-02-23T14:11:39;8.60;;;7.80;;
20609;SDS011;10463;52.378;9.688;2023-02-23T14:14:11;8.70;;;7.80;;
20609;SDS011;10463;52.378;9.688;2023-02-23T14:16:42;9.67;;;8.17;;
20609;SDS011;10463;52.378;9.688;2023-02-23T14:19:13;8.87;;;7.97;;
20609;SDS011;10463;52.378;9.688;2023-02-23T14:21:58;9.43;;;7.80;;
20609;SDS011;10463;52.378;9.688;2023-02-23T14:24:29;8.53;;;7.73;;
20609;SDS011;10463;52.378;9.688;2023-02-23T14:27:17;8.60;;;7.43;;
20609;SDS011;10463;52.378;9.688;2023-02-23T14:30:18;9.17;;;7.73;;
20609;SDS011;10463;52.378;9.688;2023-02-23T14:32:47;8.07;;;7.27;;
20609;SDS011;10463;52.378;9.688;2023-02-23T14:35:37;7.73;;;6.93;;
20609;SDS011;10463;52.378;9.688;2023-02-23T14:38:30;9.27;;;7.63;;
20609;SDS011;10463;52.378;9.688;2023-02-23T14:41:00;8.50;;;7.70;;
20609;SDS011;10463;52.378;9.688;2023-02-23T14:43:41;8.27;;;7.47;;
20609;SDS011;10463;52.378;9.688;2023-02-23T14:46:12;9.10;;;8.10;;
20609;SDS011;10463;52.378;9.688;2023-02-23T14:48:54;8.03;;;7.23;;
20609;SDS011;10463;52.378;9.688;2023-02-23T14:51:32;8.17;;;7.00;;
20609;SDS011;10463;52.378;9.688;2023-02-23T14:54:08;7.43;;;6.63;;
20609;SDS011;10463;52.378;9.688;2023-02-23T14:56:49;8.87;;;7.97;;
20609;SDS011;10463;52.378;9.688;2023-02-23T14:59:19;8.57;;;7.67;;
20609;SDS011;10463;52.378;9.688;2023-02-23T15:01:46;9.80;;;7.43;;
20609;SDS011;10463;52.378;9.688;2023-02-23T15:04:16;8.63;;;6.97;;
20609;SDS011;10463;52.378;9.688;2023-02-23T15:06:44;8.63;;;7.73;;
20609;SDS011;10463;52.378;9.688;2023-02-23T15:09:18;7.90;;;7.10;;
20609;SDS011;10463;52.378;9.688;2023-02-23T15:11:50;8.87;;;7.50;;
20609;SDS011;10463;52.378;9.688;2023-02-23T15:14:18;7.73;;;6.97;;
20609;SDS011;10463;52.378;9.688;2023-02-23T15:16:46;7.90;;;7.10;;
20609;SDS011;10463;52.378;9.688;2023-02-23T15:19:16;7.60;;;6.80;;
20609;SDS011;10463;52.378;9.688;2023-02-23T15:21:52;6.93;;;6.33;;
20609;SDS011;10463;52.378;9.688;2023-02-23T15:24:22;7.87;;;7.07;;
20609;SDS011;10463;52.378;9.688;2023-02-23T15:26:54;7.10;;;6.13;;
20609;SDS011;10463;52.378;9.688;2023-02-23T15:29:23;7.83;;;7.03;;
20609;SDS011;10463;52.378;9.688;2023-02-23T15:31:52;7.40;;;6.30;;
20609;SDS011;10463;52.378;9.688;2023-02-23T15:34:21;7.33;;;6.17;;
20609;SDS011;10463;52.378;9.688;2023-02-23T15:36:51;7.47;;;6.67;;
20609;SDS011;10463;52.378;9.688;2023-02-23T15:39:24;7.07;;;6.30;;
20609;SDS011;10463;52.378;9.688;2023-02-23T15:42:02;6.57;;;5.87;;
20609;SDS011;10463;52.378;9.688;2023-02-23T15:44:30;7.00;;;6.10;;
20609;SDS011;10463;52.378;9.688;2023-02-23T15:46:58;7.20;;;6.50;;
20609;SDS011;10463;52.378;9.688;2023-02-23T15:49:28;6.67;;;6.00;;
20609;SDS011;10463;52.378;9.688;2023-02-23T15:51:58;6.77;;;6.03;;
20609;SDS011;10463;52.378;9.688;2023-02-23T15:54:28;6.77;;;6.07;;
20609;SDS011;10463;52.378;9.688;2023-02-23T15:56:58;6.53;;;5.90;;
20609;SDS011;10463;52.378;9.688;2023-02-23T15:59:33;7.10;;;5.90;;
20609;SDS011;10463;52.378;9.688;2023-02-23T16:02:03;7.07;;;5.83;;
20609;SDS011;10463;52.378;9.688;2023-02-23T16:04:45;6.87;;;6.20;;
20609;SDS011;10463;52.378;9.688;2023-02-23T16:07:18;5.70;;;5.10;;
20609;SDS011;10463;52.378;9.688;2023-02-23T16:09:49;6.97;;;6.20;;
20609;SDS011;10463;52.378;9.688;2023-02-23T16:12:21;6.80;;;6.07;;
20609;SDS011;10463;52.378;9.688;2023-02-23T16:14:51;6.83;;;6.13;;
20609;SDS011;10463;52.378;9.688;2023-02-23T16:17:23;6.23;;;5.63;;
20609;SDS011;10463;52.378;9.688;2023-02-23T16:19:53;5.87;;;5.23;;
20609;SDS011;10463;52.378;9.688;2023-02-23T16:22:23;7.07;;;6.37;;
20609;SDS011;10463;52.378;9.688;2023-02-23T16:24:58;6.90;;;6.20;;
20609;SDS011;10463;52.378;9.688;2023-02-23T16:27:28;6.20;;;5.60;;
20609;SDS011;10463;52.378;9.688;2023-02-23T16:29:58;5.80;;;5.20;;
20609;SDS011;10463;52.378;9.688;2023-02-23T16:32:35;6.47;;;5.40;;
20609;SDS011;10463;52.378;9.688;2023-02-23T16:35:08;6.43;;;5.83;;
20609;SDS011;10463;52.378;9.688;2023-02-23T16:38:00;5.80;;;5.27;;
20609;SDS011;10463;52.378;9.688;2023-02-23T16:40:28;5.40;;;4.90;;
20609;SDS011;10463;52.378;9.688;2023-02-23T16:42:56;7.27;;;6.00;;
20609;SDS011;10463;52.378;9.688;2023-02-23T16:45:24;5.63;;;5.03;;